RYR6826 LZIB-EPGD
Flight info
| Callsign | RYR6826 |
|---|---|
| Flight time | N/A |
| Altitude | 35000 |
| Route | BERVA P10 MAVOR DCT UPLAV DCT BIBKA N133 GRUDA Z95 OSLOG |
| Aircraft | B738/M-SDE3FGILRWY/SB1 |
Departure
| Time | N/A |
|---|---|
| Airport | M. R. Štefánik Airport (LZIB) |
Arrival
| Time | 2026-05-07 17:49 |
|---|---|
| Airport | Gdańsk Lech Wałęsa Airport (EPGD) |
| Time | Latitude | Longitude | Altitude | Speed | Heading |
|---|---|---|---|---|---|
| 2026-05-07 16:59 | 49.33718 | 17.53147 | 29347 ft | 460 kts | 5° |
| 2026-05-07 17:00 | 49.36874 | 17.54085 | 29749 ft | 464 kts | 8° |
| 2026-05-07 17:00 | 49.40031 | 17.55175 | 30118 ft | 467 kts | 9° |
| 2026-05-07 17:00 | 49.43209 | 17.56321 | 30427 ft | 469 kts | 9° |
| 2026-05-07 17:00 | 49.46374 | 17.57467 | 30855 ft | 468 kts | 8° |
| 2026-05-07 17:01 | 49.49546 | 17.58605 | 31327 ft | 466 kts | 8° |
| 2026-05-07 17:01 | 49.52696 | 17.59716 | 31767 ft | 465 kts | 7° |
| 2026-05-07 17:01 | 49.55849 | 17.60813 | 32176 ft | 464 kts | 7° |
| 2026-05-07 17:01 | 49.59006 | 17.61900 | 32548 ft | 464 kts | 7° |
| 2026-05-07 17:02 | 49.62152 | 17.62979 | 32965 ft | 463 kts | 6° |
| 2026-05-07 17:02 | 49.65300 | 17.64058 | 33378 ft | 462 kts | 6° |
| 2026-05-07 17:02 | 49.68284 | 17.65081 | 33738 ft | 462 kts | 6° |
| 2026-05-07 17:02 | 49.71454 | 17.66169 | 34071 ft | 462 kts | 6° |
| 2026-05-07 17:03 | 49.74588 | 17.67247 | 34387 ft | 462 kts | 6° |
| 2026-05-07 17:03 | 49.77728 | 17.68329 | 34731 ft | 461 kts | 6° |
| 2026-05-07 17:03 | 49.80858 | 17.69410 | 34953 ft | 463 kts | 7° |
| 2026-05-07 17:03 | 49.84012 | 17.70497 | 34927 ft | 467 kts | 7° |
| 2026-05-07 17:04 | 49.90359 | 17.72697 | 34943 ft | 464 kts | 7° |
| 2026-05-07 17:04 | 49.96611 | 17.74876 | 34943 ft | 460 kts | 6° |
| 2026-05-07 17:05 | 49.99736 | 17.75964 | 34785 ft | 461 kts | 7° |
| 2026-05-07 17:05 | 50.02828 | 17.77041 | 34787 ft | 461 kts | 7° |
| 2026-05-07 17:05 | 50.09102 | 17.79229 | 34786 ft | 463 kts | 7° |
| 2026-05-07 17:06 | 50.15385 | 17.81429 | 34789 ft | 464 kts | 7° |
| 2026-05-07 17:06 | 50.21690 | 17.83644 | 34792 ft | 464 kts | 7° |
| 2026-05-07 17:07 | 50.27998 | 17.85865 | 34791 ft | 465 kts | 7° |
| 2026-05-07 17:07 | 50.34306 | 17.88093 | 34790 ft | 465 kts | 7° |
| 2026-05-07 17:08 | 50.40620 | 17.90329 | 34789 ft | 465 kts | 8° |
| 2026-05-07 17:08 | 50.46920 | 17.92567 | 34794 ft | 464 kts | 8° |
| 2026-05-07 17:09 | 50.53256 | 17.94172 | 34810 ft | 456 kts | 358° |
| 2026-05-07 17:09 | 50.59574 | 17.94573 | 34801 ft | 454 kts | 356° |
| 2026-05-07 17:10 | 50.65889 | 17.94844 | 34804 ft | 453 kts | 356° |
| 2026-05-07 17:10 | 50.72188 | 17.95081 | 34805 ft | 453 kts | 356° |
| 2026-05-07 17:11 | 50.78480 | 17.95297 | 34812 ft | 453 kts | 356° |
| 2026-05-07 17:11 | 50.84798 | 17.95502 | 34818 ft | 453 kts | 356° |
| 2026-05-07 17:12 | 50.91105 | 17.95696 | 34814 ft | 454 kts | 356° |
| 2026-05-07 17:12 | 50.97422 | 17.95883 | 34816 ft | 454 kts | 356° |
| 2026-05-07 17:13 | 51.03740 | 17.96064 | 34819 ft | 454 kts | 356° |
| 2026-05-07 17:13 | 51.10071 | 17.96239 | 34822 ft | 455 kts | 356° |
| 2026-05-07 17:14 | 51.16408 | 17.96407 | 34823 ft | 456 kts | 356° |
| 2026-05-07 17:14 | 51.22718 | 17.96570 | 34833 ft | 456 kts | 356° |
| 2026-05-07 17:15 | 51.29106 | 17.97314 | 34834 ft | 461 kts | 4° |
| 2026-05-07 17:15 | 51.35445 | 17.98993 | 34829 ft | 463 kts | 6° |
| 2026-05-07 17:16 | 51.41778 | 18.00760 | 34826 ft | 463 kts | 6° |
| 2026-05-07 17:16 | 51.48146 | 18.02557 | 34834 ft | 463 kts | 6° |
| 2026-05-07 17:17 | 51.54501 | 18.04356 | 34835 ft | 463 kts | 6° |
| 2026-05-07 17:17 | 51.60840 | 18.06153 | 34844 ft | 464 kts | 6° |
| 2026-05-07 17:18 | 51.67205 | 18.07959 | 34840 ft | 464 kts | 6° |
| 2026-05-07 17:18 | 51.73565 | 18.09764 | 34839 ft | 464 kts | 6° |
| 2026-05-07 17:19 | 51.79915 | 18.11566 | 34849 ft | 464 kts | 6° |
| 2026-05-07 17:19 | 51.86272 | 18.13371 | 34847 ft | 464 kts | 6° |
| 2026-05-07 17:20 | 51.92628 | 18.15173 | 34849 ft | 464 kts | 6° |
| 2026-05-07 17:20 | 51.98926 | 18.17570 | 34859 ft | 468 kts | 17° |
| 2026-05-07 17:21 | 52.04981 | 18.21445 | 34858 ft | 468 kts | 20° |
| 2026-05-07 17:21 | 52.10962 | 18.25412 | 34844 ft | 460 kts | 19° |
| 2026-05-07 17:22 | 52.16889 | 18.29238 | 34859 ft | 459 kts | 19° |
| 2026-05-07 17:22 | 52.19876 | 18.31138 | 34542 ft | 460 kts | 19° |
| 2026-05-07 17:22 | 52.22849 | 18.33023 | 34221 ft | 455 kts | 19° |
| 2026-05-07 17:23 | 52.25786 | 18.34884 | 33837 ft | 452 kts | 19° |
| 2026-05-07 17:23 | 52.28709 | 18.36738 | 33404 ft | 449 kts | 19° |
| 2026-05-07 17:23 | 52.31615 | 18.38582 | 33180 ft | 447 kts | 21° |
| 2026-05-07 17:23 | 52.34507 | 18.40421 | 32767 ft | 445 kts | 21° |
| 2026-05-07 17:24 | 52.37385 | 18.42256 | 32367 ft | 443 kts | 21° |
| 2026-05-07 17:24 | 52.40224 | 18.44070 | 31991 ft | 441 kts | 21° |
| 2026-05-07 17:24 | 52.43090 | 18.45903 | 31614 ft | 439 kts | 21° |
| 2026-05-07 17:24 | 52.45924 | 18.47719 | 31239 ft | 437 kts | 21° |
| 2026-05-07 17:25 | 52.48754 | 18.49535 | 30866 ft | 435 kts | 22° |
| 2026-05-07 17:25 | 52.51571 | 18.51345 | 30493 ft | 433 kts | 22° |
| 2026-05-07 17:25 | 52.54373 | 18.53148 | 30132 ft | 432 kts | 22° |
| 2026-05-07 17:25 | 52.57170 | 18.54950 | 29693 ft | 431 kts | 22° |
| 2026-05-07 17:26 | 52.59952 | 18.56745 | 29290 ft | 428 kts | 22° |
| 2026-05-07 17:26 | 52.62710 | 18.58527 | 28884 ft | 426 kts | 22° |
| 2026-05-07 17:26 | 52.65468 | 18.60312 | 28488 ft | 423 kts | 21° |
| 2026-05-07 17:26 | 52.68194 | 18.62078 | 28104 ft | 421 kts | 21° |
| 2026-05-07 17:27 | 52.70911 | 18.63840 | 27727 ft | 418 kts | 21° |
| 2026-05-07 17:27 | 52.73610 | 18.65594 | 27348 ft | 416 kts | 21° |
| 2026-05-07 17:27 | 52.76300 | 18.67343 | 26970 ft | 413 kts | 21° |
| 2026-05-07 17:27 | 52.78969 | 18.69081 | 26594 ft | 411 kts | 21° |
| 2026-05-07 17:28 | 52.81625 | 18.70813 | 26220 ft | 410 kts | 21° |
| 2026-05-07 17:28 | 52.84264 | 18.72537 | 25847 ft | 408 kts | 21° |
| 2026-05-07 17:28 | 52.86867 | 18.74239 | 25477 ft | 406 kts | 21° |
| 2026-05-07 17:28 | 52.89520 | 18.75976 | 25102 ft | 405 kts | 20° |
| 2026-05-07 17:29 | 52.92137 | 18.77691 | 24709 ft | 404 kts | 20° |
| 2026-05-07 17:29 | 52.94704 | 18.79376 | 24346 ft | 403 kts | 20° |
| 2026-05-07 17:29 | 52.97351 | 18.81116 | 23954 ft | 402 kts | 20° |
| 2026-05-07 17:29 | 52.99949 | 18.82826 | 23565 ft | 401 kts | 20° |
| 2026-05-07 17:30 | 53.02536 | 18.84531 | 23133 ft | 400 kts | 20° |
| 2026-05-07 17:30 | 53.05116 | 18.86233 | 22732 ft | 397 kts | 20° |
| 2026-05-07 17:30 | 53.07671 | 18.87921 | 22349 ft | 394 kts | 20° |
| 2026-05-07 17:30 | 53.10212 | 18.89602 | 21976 ft | 392 kts | 20° |
| 2026-05-07 17:31 | 53.12726 | 18.91076 | 21740 ft | 383 kts | 11° |
| 2026-05-07 17:31 | 53.15306 | 18.91721 | 21628 ft | 369 kts | 359° |
| 2026-05-07 17:31 | 53.17843 | 18.91680 | 21308 ft | 363 kts | 354° |
| 2026-05-07 17:31 | 53.20368 | 18.91503 | 20930 ft | 362 kts | 353° |
| 2026-05-07 17:32 | 53.22881 | 18.91309 | 20586 ft | 360 kts | 354° |
| 2026-05-07 17:32 | 53.25369 | 18.91120 | 20275 ft | 357 kts | 354° |
| 2026-05-07 17:32 | 53.27846 | 18.90940 | 19969 ft | 355 kts | 354° |
| 2026-05-07 17:32 | 53.29467 | 18.90826 | 19755 ft | 353 kts | 354° |
| 2026-05-07 17:33 | 53.32751 | 18.90603 | 19330 ft | 350 kts | 355° |
| 2026-05-07 17:33 | 53.35180 | 18.90443 | 19026 ft | 348 kts | 355° |
| 2026-05-07 17:33 | 53.37593 | 18.90287 | 18719 ft | 346 kts | 355° |
| 2026-05-07 17:33 | 53.39991 | 18.90132 | 18425 ft | 344 kts | 355° |
| 2026-05-07 17:34 | 53.42371 | 18.89979 | 18091 ft | 342 kts | 355° |
| 2026-05-07 17:34 | 53.44740 | 18.89827 | 17760 ft | 339 kts | 355° |
| 2026-05-07 17:34 | 53.47084 | 18.89677 | 17445 ft | 336 kts | 355° |
| 2026-05-07 17:34 | 53.49414 | 18.89528 | 17122 ft | 334 kts | 355° |
| 2026-05-07 17:35 | 53.51732 | 18.89379 | 16731 ft | 334 kts | 355° |
| 2026-05-07 17:35 | 53.53272 | 18.89279 | 16456 ft | 334 kts | 355° |
| 2026-05-07 17:35 | 53.56383 | 18.89078 | 15922 ft | 335 kts | 355° |
| 2026-05-07 17:35 | 53.57927 | 18.88978 | 15657 ft | 335 kts | 355° |
| 2026-05-07 17:36 | 53.60258 | 18.88828 | 15262 ft | 335 kts | 355° |
| 2026-05-07 17:36 | 53.62585 | 18.88677 | 14870 ft | 335 kts | 355° |
| 2026-05-07 17:36 | 53.64905 | 18.88527 | 14467 ft | 333 kts | 355° |
| 2026-05-07 17:36 | 53.67203 | 18.88380 | 14008 ft | 328 kts | 355° |
| 2026-05-07 17:37 | 53.69459 | 18.88235 | 13507 ft | 322 kts | 355° |
| 2026-05-07 17:37 | 53.71690 | 18.88091 | 12997 ft | 317 kts | 355° |
| 2026-05-07 17:37 | 53.73879 | 18.87949 | 12513 ft | 312 kts | 355° |
| 2026-05-07 17:37 | 53.76022 | 18.87811 | 12131 ft | 305 kts | 356° |
| 2026-05-07 17:38 | 53.78128 | 18.87674 | 11761 ft | 302 kts | 355° |
| 2026-05-07 17:38 | 53.80218 | 18.87537 | 11358 ft | 300 kts | 356° |
| 2026-05-07 17:38 | 53.82295 | 18.87401 | 10963 ft | 298 kts | 356° |
| 2026-05-07 17:38 | 53.84375 | 18.87264 | 10414 ft | 303 kts | 356° |
| 2026-05-07 17:39 | 53.86460 | 18.87127 | 10161 ft | 296 kts | 356° |
| 2026-05-07 17:39 | 53.88516 | 18.86992 | 9828 ft | 295 kts | 356° |
| 2026-05-07 17:39 | 53.90563 | 18.86858 | 9502 ft | 293 kts | 356° |
| 2026-05-07 17:39 | 53.92592 | 18.86725 | 9186 ft | 291 kts | 357° |
| 2026-05-07 17:40 | 53.94614 | 18.86592 | 8876 ft | 290 kts | 357° |
| 2026-05-07 17:40 | 53.96616 | 18.86461 | 8579 ft | 288 kts | 357° |
| 2026-05-07 17:40 | 53.98614 | 18.86330 | 8262 ft | 286 kts | 357° |
| 2026-05-07 17:40 | 54.00595 | 18.86200 | 7959 ft | 284 kts | 358° |
| 2026-05-07 17:41 | 54.02562 | 18.86070 | 7660 ft | 282 kts | 358° |
| 2026-05-07 17:41 | 54.04514 | 18.85941 | 7361 ft | 280 kts | 358° |
| 2026-05-07 17:41 | 54.06459 | 18.85813 | 7059 ft | 279 kts | 358° |
| 2026-05-07 17:41 | 54.08363 | 18.85687 | 6766 ft | 277 kts | 358° |
| 2026-05-07 17:42 | 54.10309 | 18.85559 | 6457 ft | 276 kts | 358° |
| 2026-05-07 17:42 | 54.12225 | 18.85432 | 6110 ft | 276 kts | 358° |
| 2026-05-07 17:42 | 54.14108 | 18.85307 | 5796 ft | 273 kts | 359° |
| 2026-05-07 17:42 | 54.15994 | 18.85182 | 5492 ft | 267 kts | 359° |
| 2026-05-07 17:43 | 54.17843 | 18.85058 | 5220 ft | 258 kts | 359° |
| 2026-05-07 17:43 | 54.19581 | 18.84942 | 5129 ft | 249 kts | 359° |
| 2026-05-07 17:43 | 54.21302 | 18.84828 | 5013 ft | 240 kts | 359° |
| 2026-05-07 17:43 | 54.22922 | 18.84721 | 4901 ft | 232 kts | 359° |
| 2026-05-07 17:44 | 54.24510 | 18.84615 | 4806 ft | 224 kts | 359° |
| 2026-05-07 17:44 | 54.26042 | 18.84512 | 4690 ft | 218 kts | 360° |
| 2026-05-07 17:44 | 54.27512 | 18.83979 | 4451 ft | 220 kts | 331° |
| 2026-05-07 17:44 | 54.28549 | 18.82074 | 4268 ft | 221 kts | 308° |
| 2026-05-07 17:45 | 54.29368 | 18.79835 | 4001 ft | 222 kts | 304° |
| 2026-05-07 17:45 | 54.30116 | 18.77552 | 3789 ft | 218 kts | 301° |
| 2026-05-07 17:45 | 54.30745 | 18.75221 | 3533 ft | 214 kts | 297° |
| 2026-05-07 17:45 | 54.31317 | 18.72893 | 3293 ft | 209 kts | 297° |
| 2026-05-07 17:46 | 54.31867 | 18.70628 | 3071 ft | 203 kts | 297° |
| 2026-05-07 17:46 | 54.32394 | 18.68461 | 2972 ft | 192 kts | 297° |
| 2026-05-07 17:46 | 54.32903 | 18.66382 | 2760 ft | 188 kts | 297° |
| 2026-05-07 17:46 | 54.33410 | 18.64314 | 2501 ft | 187 kts | 297° |
| 2026-05-07 17:47 | 54.33911 | 18.62268 | 2240 ft | 185 kts | 297° |
| 2026-05-07 17:47 | 54.34401 | 18.60264 | 1983 ft | 177 kts | 298° |
| 2026-05-07 17:47 | 54.34862 | 18.58382 | 1743 ft | 166 kts | 298° |
| 2026-05-07 17:47 | 54.35288 | 18.56645 | 1519 ft | 150 kts | 298° |
| 2026-05-07 17:48 | 54.35691 | 18.54996 | 1269 ft | 153 kts | 297° |
| 2026-05-07 17:48 | 54.36085 | 18.53323 | 1117 ft | 154 kts | 297° |
| 2026-05-07 17:48 | 54.36507 | 18.51636 | 904 ft | 154 kts | 298° |
| 2026-05-07 17:48 | 54.36930 | 18.49941 | 641 ft | 157 kts | 297° |
| 2026-05-07 17:49 | 54.37348 | 18.48265 | 481 ft | 145 kts | 296° |
| 2026-05-07 17:49 | 54.37679 | 18.46936 | 454 ft | 93 kts | 293° |
| 2026-05-07 17:49 | 54.37843 | 18.46249 | 457 ft | 36 kts | 293° |
| 2026-05-07 17:49 | 54.37954 | 18.45917 | 455 ft | 28 kts | 313° |
| 2026-05-07 17:50 | 54.38057 | 18.45757 | 454 ft | 12 kts | 320° |
| 2026-05-07 17:50 | 54.38127 | 18.45712 | 454 ft | 12 kts | 30° |
| 2026-05-07 17:50 | 54.38130 | 18.45833 | 455 ft | 6 kts | 105° |
| 2026-05-07 17:50 | 54.38117 | 18.45907 | 456 ft | 6 kts | 109° |
| 2026-05-07 17:51 | 54.38101 | 18.45978 | 458 ft | 6 kts | 101° |
| 2026-05-07 17:51 | 54.38112 | 18.46049 | 457 ft | 6 kts | 57° |
| 2026-05-07 17:51 | 54.38148 | 18.46089 | 459 ft | 6 kts | 24° |
| 2026-05-07 17:51 | 54.38177 | 18.46139 | 459 ft | 6 kts | 79° |
| 2026-05-07 17:52 | 54.38167 | 18.46210 | 459 ft | 6 kts | 112° |
| 2026-05-07 17:52 | 54.38158 | 18.46281 | 459 ft | 6 kts | 71° |
| 2026-05-07 17:52 | 54.38186 | 18.46312 | 456 ft | 0 kts | 23° |
| 2026-05-07 17:52 | 54.38189 | 18.46314 | 457 ft | 0 kts | 24° |